sensor_id;sensor_type;location;lat;lon;timestamp;P1;durP1;ratioP1;P2;durP2;ratioP2
8964;SDS011;4517;49.020;12.066;2024-01-15T00:01:45;80.50;;;34.67;;
8964;SDS011;4517;49.020;12.066;2024-01-15T00:04:11;76.10;;;33.70;;
8964;SDS011;4517;49.020;12.066;2024-01-15T00:06:37;75.13;;;32.90;;
8964;SDS011;4517;49.020;12.066;2024-01-15T00:09:02;87.43;;;35.17;;
8964;SDS011;4517;49.020;12.066;2024-01-15T00:11:28;80.57;;;33.17;;
8964;SDS011;4517;49.020;12.066;2024-01-15T00:13:54;75.43;;;34.40;;
8964;SDS011;4517;49.020;12.066;2024-01-15T00:16:20;92.80;;;37.30;;
8964;SDS011;4517;49.020;12.066;2024-01-15T00:18:46;88.07;;;35.87;;
8964;SDS011;4517;49.020;12.066;2024-01-15T00:21:12;72.87;;;33.53;;
8964;SDS011;4517;49.020;12.066;2024-01-15T00:23:42;77.50;;;38.07;;
8964;SDS011;4517;49.020;12.066;2024-01-15T00:26:09;94.83;;;38.23;;
8964;SDS011;4517;49.020;12.066;2024-01-15T00:28:35;75.93;;;36.67;;
8964;SDS011;4517;49.020;12.066;2024-01-15T00:31:01;77.87;;;33.80;;
8964;SDS011;4517;49.020;12.066;2024-01-15T00:33:27;73.43;;;35.67;;
8964;SDS011;4517;49.020;12.066;2024-01-15T00:35:53;67.63;;;33.77;;
8964;SDS011;4517;49.020;12.066;2024-01-15T00:38:19;51.23;;;24.57;;
8964;SDS011;4517;49.020;12.066;2024-01-15T00:40:45;51.63;;;26.60;;
8964;SDS011;4517;49.020;12.066;2024-01-15T00:43:11;59.90;;;28.73;;
8964;SDS011;4517;49.020;12.066;2024-01-15T00:45:37;55.27;;;27.50;;
8964;SDS011;4517;49.020;12.066;2024-01-15T00:48:03;58.40;;;29.50;;
8964;SDS011;4517;49.020;12.066;2024-01-15T00:50:29;38.40;;;22.60;;
8964;SDS011;4517;49.020;12.066;2024-01-15T00:52:55;66.43;;;27.27;;
8964;SDS011;4517;49.020;12.066;2024-01-15T00:55:21;61.73;;;28.10;;
8964;SDS011;4517;49.020;12.066;2024-01-15T00:57:47;57.10;;;26.20;;
8964;SDS011;4517;49.020;12.066;2024-01-15T01:00:13;53.17;;;27.57;;
8964;SDS011;4517;49.020;12.066;2024-01-15T01:02:39;54.00;;;27.60;;
8964;SDS011;4517;49.020;12.066;2024-01-15T01:05:05;53.43;;;26.43;;
8964;SDS011;4517;49.020;12.066;2024-01-15T01:07:31;46.03;;;26.07;;
8964;SDS011;4517;49.020;12.066;2024-01-15T01:09:57;49.17;;;27.27;;
8964;SDS011;4517;49.020;12.066;2024-01-15T01:12:23;48.03;;;25.83;;
8964;SDS011;4517;49.020;12.066;2024-01-15T01:14:49;52.73;;;28.57;;
8964;SDS011;4517;49.020;12.066;2024-01-15T01:17:15;56.73;;;27.13;;
8964;SDS011;4517;49.020;12.066;2024-01-15T01:19:41;53.03;;;27.67;;
8964;SDS011;4517;49.020;12.066;2024-01-15T01:22:07;63.40;;;27.87;;
8964;SDS011;4517;49.020;12.066;2024-01-15T01:24:33;56.63;;;29.00;;
8964;SDS011;4517;49.020;12.066;2024-01-15T01:26:59;54.40;;;27.43;;
8964;SDS011;4517;49.020;12.066;2024-01-15T01:29:25;68.03;;;27.70;;
8964;SDS011;4517;49.020;12.066;2024-01-15T01:31:51;54.80;;;28.90;;
8964;SDS011;4517;49.020;12.066;2024-01-15T01:34:17;56.60;;;28.67;;
8964;SDS011;4517;49.020;12.066;2024-01-15T01:36:43;59.90;;;27.03;;
8964;SDS011;4517;49.020;12.066;2024-01-15T01:39:09;58.50;;;28.77;;
8964;SDS011;4517;49.020;12.066;2024-01-15T01:41:35;51.07;;;26.20;;
8964;SDS011;4517;49.020;12.066;2024-01-15T01:44:01;56.03;;;27.13;;
8964;SDS011;4517;49.020;12.066;2024-01-15T01:46:27;54.70;;;27.47;;
8964;SDS011;4517;49.020;12.066;2024-01-15T01:48:54;48.13;;;26.07;;
8964;SDS011;4517;49.020;12.066;2024-01-15T01:51:24;47.37;;;23.77;;
8964;SDS011;4517;49.020;12.066;2024-01-15T01:53:50;34.40;;;22.17;;
8964;SDS011;4517;49.020;12.066;2024-01-15T01:56:16;45.50;;;25.40;;
8964;SDS011;4517;49.020;12.066;2024-01-15T01:58:43;51.93;;;25.23;;
8964;SDS011;4517;49.020;12.066;2024-01-15T02:01:10;49.27;;;25.93;;
8964;SDS011;4517;49.020;12.066;2024-01-15T02:03:36;40.87;;;23.53;;
8964;SDS011;4517;49.020;12.066;2024-01-15T02:06:02;43.70;;;24.83;;
8964;SDS011;4517;49.020;12.066;2024-01-15T02:08:28;47.77;;;25.07;;
8964;SDS011;4517;49.020;12.066;2024-01-15T02:10:54;54.00;;;26.67;;
8964;SDS011;4517;49.020;12.066;2024-01-15T02:13:20;48.27;;;26.87;;
8964;SDS011;4517;49.020;12.066;2024-01-15T02:15:46;46.57;;;24.97;;
8964;SDS011;4517;49.020;12.066;2024-01-15T02:18:12;55.53;;;25.80;;
8964;SDS011;4517;49.020;12.066;2024-01-15T02:20:38;47.80;;;25.57;;
8964;SDS011;4517;49.020;12.066;2024-01-15T02:23:11;48.43;;;25.27;;
8964;SDS011;4517;49.020;12.066;2024-01-15T02:25:38;47.53;;;25.07;;
8964;SDS011;4517;49.020;12.066;2024-01-15T02:28:05;38.30;;;24.17;;
8964;SDS011;4517;49.020;12.066;2024-01-15T02:30:31;50.17;;;24.53;;
8964;SDS011;4517;49.020;12.066;2024-01-15T02:32:57;49.30;;;25.00;;
8964;SDS011;4517;49.020;12.066;2024-01-15T02:35:23;44.33;;;24.87;;
8964;SDS011;4517;49.020;12.066;2024-01-15T02:37:49;37.83;;;23.13;;
8964;SDS011;4517;49.020;12.066;2024-01-15T02:40:15;47.93;;;25.10;;
8964;SDS011;4517;49.020;12.066;2024-01-15T02:42:41;54.80;;;27.37;;
8964;SDS011;4517;49.020;12.066;2024-01-15T02:45:07;47.73;;;26.50;;
8964;SDS011;4517;49.020;12.066;2024-01-15T02:47:33;49.23;;;23.47;;
8964;SDS011;4517;49.020;12.066;2024-01-15T02:49:59;47.80;;;24.97;;
8964;SDS011;4517;49.020;12.066;2024-01-15T02:52:25;41.93;;;24.37;;
8964;SDS011;4517;49.020;12.066;2024-01-15T02:54:51;47.67;;;24.87;;
8964;SDS011;4517;49.020;12.066;2024-01-15T02:57:17;34.70;;;20.90;;
8964;SDS011;4517;49.020;12.066;2024-01-15T02:59:43;39.77;;;22.57;;
8964;SDS011;4517;49.020;12.066;2024-01-15T03:02:09;42.30;;;23.37;;
8964;SDS011;4517;49.020;12.066;2024-01-15T03:04:35;40.43;;;23.70;;
8964;SDS011;4517;49.020;12.066;2024-01-15T03:07:01;38.23;;;23.47;;
8964;SDS011;4517;49.020;12.066;2024-01-15T03:09:27;39.70;;;21.40;;
8964;SDS011;4517;49.020;12.066;2024-01-15T03:11:53;37.37;;;21.63;;
8964;SDS011;4517;49.020;12.066;2024-01-15T03:14:19;36.33;;;22.00;;
8964;SDS011;4517;49.020;12.066;2024-01-15T03:16:45;34.27;;;21.10;;
8964;SDS011;4517;49.020;12.066;2024-01-15T03:19:11;40.07;;;22.00;;
8964;SDS011;4517;49.020;12.066;2024-01-15T03:21:37;34.83;;;22.20;;
8964;SDS011;4517;49.020;12.066;2024-01-15T03:24:03;40.00;;;22.97;;
8964;SDS011;4517;49.020;12.066;2024-01-15T03:26:29;38.37;;;22.30;;
8964;SDS011;4517;49.020;12.066;2024-01-15T03:28:55;36.70;;;21.47;;
8964;SDS011;4517;49.020;12.066;2024-01-15T03:31:21;43.07;;;23.50;;
8964;SDS011;4517;49.020;12.066;2024-01-15T03:33:47;43.57;;;22.13;;
8964;SDS011;4517;49.020;12.066;2024-01-15T03:36:13;37.97;;;21.80;;
8964;SDS011;4517;49.020;12.066;2024-01-15T03:38:42;29.23;;;20.10;;
8964;SDS011;4517;49.020;12.066;2024-01-15T03:41:08;41.30;;;21.00;;
8964;SDS011;4517;49.020;12.066;2024-01-15T03:43:34;35.67;;;21.20;;
8964;SDS011;4517;49.020;12.066;2024-01-15T03:45:59;34.33;;;22.97;;
8964;SDS011;4517;49.020;12.066;2024-01-15T03:48:27;41.33;;;21.57;;
8964;SDS011;4517;49.020;12.066;2024-01-15T03:50:53;34.23;;;22.30;;
8964;SDS011;4517;49.020;12.066;2024-01-15T03:53:19;36.23;;;20.93;;
8964;SDS011;4517;49.020;12.066;2024-01-15T03:55:44;36.97;;;20.53;;
8964;SDS011;4517;49.020;12.066;2024-01-15T03:58:10;34.43;;;20.30;;
8964;SDS011;4517;49.020;12.066;2024-01-15T04:00:36;32.03;;;21.00;;
8964;SDS011;4517;49.020;12.066;2024-01-15T04:03:02;30.83;;;21.10;;
8964;SDS011;4517;49.020;12.066;2024-01-15T04:05:28;29.63;;;20.93;;
8964;SDS011;4517;49.020;12.066;2024-01-15T04:07:54;35.57;;;21.80;;
8964;SDS011;4517;49.020;12.066;2024-01-15T04:10:20;27.00;;;20.47;;
8964;SDS011;4517;49.020;12.066;2024-01-15T04:12:46;30.77;;;20.30;;
8964;SDS011;4517;49.020;12.066;2024-01-15T04:15:12;37.73;;;20.87;;
8964;SDS011;4517;49.020;12.066;2024-01-15T04:17:38;31.60;;;20.93;;
8964;SDS011;4517;49.020;12.066;2024-01-15T04:20:04;28.27;;;20.10;;
8964;SDS011;4517;49.020;12.066;2024-01-15T04:22:31;35.23;;;20.43;;
8964;SDS011;4517;49.020;12.066;2024-01-15T04:24:57;30.60;;;19.30;;
8964;SDS011;4517;49.020;12.066;2024-01-15T04:27:23;28.33;;;19.07;;
8964;SDS011;4517;49.020;12.066;2024-01-15T04:29:49;30.00;;;20.43;;
8964;SDS011;4517;49.020;12.066;2024-01-15T04:32:15;31.50;;;19.83;;
8964;SDS011;4517;49.020;12.066;2024-01-15T04:34:41;36.30;;;21.30;;
8964;SDS011;4517;49.020;12.066;2024-01-15T04:37:07;37.03;;;19.80;;
8964;SDS011;4517;49.020;12.066;2024-01-15T04:39:33;30.17;;;20.07;;
8964;SDS011;4517;49.020;12.066;2024-01-15T04:41:59;31.57;;;20.70;;
8964;SDS011;4517;49.020;12.066;2024-01-15T04:44:25;30.27;;;20.00;;
8964;SDS011;4517;49.020;12.066;2024-01-15T04:46:51;33.83;;;20.40;;
8964;SDS011;4517;49.020;12.066;2024-01-15T04:49:17;30.00;;;19.93;;
8964;SDS011;4517;49.020;12.066;2024-01-15T04:51:43;35.93;;;21.40;;
8964;SDS011;4517;49.020;12.066;2024-01-15T04:54:09;28.90;;;19.23;;
8964;SDS011;4517;49.020;12.066;2024-01-15T04:56:35;29.63;;;20.10;;
8964;SDS011;4517;49.020;12.066;2024-01-15T04:59:01;30.97;;;20.07;;
8964;SDS011;4517;49.020;12.066;2024-01-15T05:01:30;31.27;;;20.23;;
8964;SDS011;4517;49.020;12.066;2024-01-15T05:03:56;29.87;;;20.70;;
8964;SDS011;4517;49.020;12.066;2024-01-15T05:06:22;36.90;;;21.10;;
8964;SDS011;4517;49.020;12.066;2024-01-15T05:08:48;26.17;;;20.10;;
8964;SDS011;4517;49.020;12.066;2024-01-15T05:11:14;27.57;;;19.50;;
8964;SDS011;4517;49.020;12.066;2024-01-15T05:13:40;23.93;;;19.77;;
8964;SDS011;4517;49.020;12.066;2024-01-15T05:16:06;27.73;;;20.97;;
8964;SDS011;4517;49.020;12.066;2024-01-15T05:18:32;25.13;;;19.60;;
8964;SDS011;4517;49.020;12.066;2024-01-15T05:20:58;23.97;;;19.87;;
8964;SDS011;4517;49.020;12.066;2024-01-15T05:23:24;28.30;;;19.20;;
8964;SDS011;4517;49.020;12.066;2024-01-15T05:25:50;32.00;;;20.90;;
8964;SDS011;4517;49.020;12.066;2024-01-15T05:28:16;27.40;;;21.17;;
8964;SDS011;4517;49.020;12.066;2024-01-15T05:30:42;27.90;;;19.77;;
8964;SDS011;4517;49.020;12.066;2024-01-15T05:33:08;33.17;;;19.73;;
8964;SDS011;4517;49.020;12.066;2024-01-15T05:35:34;29.73;;;21.00;;
8964;SDS011;4517;49.020;12.066;2024-01-15T05:38:00;26.13;;;19.47;;
8964;SDS011;4517;49.020;12.066;2024-01-15T05:40:26;26.77;;;20.57;;
8964;SDS011;4517;49.020;12.066;2024-01-15T05:42:52;32.73;;;20.40;;
8964;SDS011;4517;49.020;12.066;2024-01-15T05:45:17;31.30;;;21.23;;
8964;SDS011;4517;49.020;12.066;2024-01-15T05:47:43;25.33;;;19.50;;
8964;SDS011;4517;49.020;12.066;2024-01-15T05:50:09;30.30;;;18.93;;
8964;SDS011;4517;49.020;12.066;2024-01-15T05:52:36;29.40;;;19.27;;
8964;SDS011;4517;49.020;12.066;2024-01-15T05:55:01;27.20;;;19.20;;
8964;SDS011;4517;49.020;12.066;2024-01-15T05:57:28;23.90;;;20.07;;
8964;SDS011;4517;49.020;12.066;2024-01-15T05:59:53;26.20;;;18.73;;
8964;SDS011;4517;49.020;12.066;2024-01-15T06:02:19;24.30;;;18.90;;
8964;SDS011;4517;49.020;12.066;2024-01-15T06:04:45;23.57;;;18.93;;
8964;SDS011;4517;49.020;12.066;2024-01-15T06:07:11;25.73;;;21.60;;
8964;SDS011;4517;49.020;12.066;2024-01-15T06:09:37;23.13;;;18.60;;
8964;SDS011;4517;49.020;12.066;2024-01-15T06:12:04;26.00;;;19.10;;
8964;SDS011;4517;49.020;12.066;2024-01-15T06:14:30;26.40;;;19.03;;
8964;SDS011;4517;49.020;12.066;2024-01-15T06:16:56;30.60;;;19.17;;
8964;SDS011;4517;49.020;12.066;2024-01-15T06:19:22;27.83;;;20.17;;
8964;SDS011;4517;49.020;12.066;2024-01-15T06:21:48;31.63;;;20.40;;
8964;SDS011;4517;49.020;12.066;2024-01-15T06:24:14;27.20;;;20.43;;
8964;SDS011;4517;49.020;12.066;2024-01-15T06:26:42;24.57;;;18.27;;
8964;SDS011;4517;49.020;12.066;2024-01-15T06:29:08;29.47;;;19.27;;
8964;SDS011;4517;49.020;12.066;2024-01-15T06:31:34;22.93;;;19.30;;
8964;SDS011;4517;49.020;12.066;2024-01-15T06:34:00;23.13;;;20.37;;
8964;SDS011;4517;49.020;12.066;2024-01-15T06:36:26;25.50;;;17.80;;
8964;SDS011;4517;49.020;12.066;2024-01-15T06:38:52;30.87;;;19.43;;
8964;SDS011;4517;49.020;12.066;2024-01-15T06:41:18;25.30;;;18.23;;
8964;SDS011;4517;49.020;12.066;2024-01-15T06:43:44;23.37;;;18.20;;
8964;SDS011;4517;49.020;12.066;2024-01-15T06:46:10;23.50;;;19.13;;
8964;SDS011;4517;49.020;12.066;2024-01-15T06:48:36;27.07;;;19.23;;
8964;SDS011;4517;49.020;12.066;2024-01-15T06:51:02;22.80;;;17.87;;
8964;SDS011;4517;49.020;12.066;2024-01-15T06:53:28;24.63;;;18.60;;
8964;SDS011;4517;49.020;12.066;2024-01-15T06:55:54;28.53;;;19.07;;
8964;SDS011;4517;49.020;12.066;2024-01-15T06:58:20;30.53;;;22.50;;
8964;SDS011;4517;49.020;12.066;2024-01-15T07:00:46;22.17;;;19.07;;
8964;SDS011;4517;49.020;12.066;2024-01-15T07:03:12;22.67;;;17.83;;
8964;SDS011;4517;49.020;12.066;2024-01-15T07:05:38;24.40;;;18.40;;
8964;SDS011;4517;49.020;12.066;2024-01-15T07:08:06;21.40;;;18.27;;
8964;SDS011;4517;49.020;12.066;2024-01-15T07:10:32;19.33;;;16.77;;
8964;SDS011;4517;49.020;12.066;2024-01-15T07:12:58;22.33;;;17.30;;
8964;SDS011;4517;49.020;12.066;2024-01-15T07:15:24;22.63;;;18.77;;
8964;SDS011;4517;49.020;12.066;2024-01-15T07:17:50;21.30;;;18.23;;
8964;SDS011;4517;49.020;12.066;2024-01-15T07:20:16;23.07;;;18.03;;
8964;SDS011;4517;49.020;12.066;2024-01-15T07:22:44;21.60;;;18.17;;
8964;SDS011;4517;49.020;12.066;2024-01-15T07:25:10;22.90;;;18.30;;
8964;SDS011;4517;49.020;12.066;2024-01-15T07:27:37;28.07;;;18.60;;
8964;SDS011;4517;49.020;12.066;2024-01-15T07:30:03;22.63;;;17.80;;
8964;SDS011;4517;49.020;12.066;2024-01-15T07:32:31;23.90;;;18.37;;
8964;SDS011;4517;49.020;12.066;2024-01-15T07:34:57;28.57;;;17.40;;
8964;SDS011;4517;49.020;12.066;2024-01-15T07:37:24;19.60;;;17.47;;
8964;SDS011;4517;49.020;12.066;2024-01-15T07:39:50;22.30;;;17.67;;
8964;SDS011;4517;49.020;12.066;2024-01-15T07:42:16;21.90;;;16.27;;
8964;SDS011;4517;49.020;12.066;2024-01-15T07:44:42;42.90;;;21.10;;
8964;SDS011;4517;49.020;12.066;2024-01-15T07:47:09;22.93;;;17.47;;
8964;SDS011;4517;49.020;12.066;2024-01-15T07:49:35;19.20;;;16.67;;
8964;SDS011;4517;49.020;12.066;2024-01-15T07:52:01;20.80;;;17.30;;
8964;SDS011;4517;49.020;12.066;2024-01-15T07:54:27;18.90;;;17.00;;
8964;SDS011;4517;49.020;12.066;2024-01-15T07:56:54;16.97;;;15.17;;
8964;SDS011;4517;49.020;12.066;2024-01-15T07:59:20;19.83;;;16.30;;
8964;SDS011;4517;49.020;12.066;2024-01-15T08:01:46;19.43;;;17.13;;
8964;SDS011;4517;49.020;12.066;2024-01-15T08:04:12;19.90;;;16.50;;
8964;SDS011;4517;49.020;12.066;2024-01-15T08:06:38;17.83;;;16.17;;
8964;SDS011;4517;49.020;12.066;2024-01-15T08:09:04;20.40;;;16.53;;
8964;SDS011;4517;49.020;12.066;2024-01-15T08:11:30;18.37;;;16.37;;
8964;SDS011;4517;49.020;12.066;2024-01-15T08:13:56;17.63;;;15.90;;
8964;SDS011;4517;49.020;12.066;2024-01-15T08:16:22;23.23;;;15.40;;
8964;SDS011;4517;49.020;12.066;2024-01-15T08:18:50;17.47;;;15.80;;
8964;SDS011;4517;49.020;12.066;2024-01-15T08:21:16;19.87;;;15.17;;
8964;SDS011;4517;49.020;12.066;2024-01-15T08:23:42;17.20;;;15.50;;
8964;SDS011;4517;49.020;12.066;2024-01-15T08:26:07;19.50;;;17.17;;
8964;SDS011;4517;49.020;12.066;2024-01-15T08:28:34;17.37;;;15.73;;
8964;SDS011;4517;49.020;12.066;2024-01-15T08:31:00;17.00;;;15.23;;
8964;SDS011;4517;49.020;12.066;2024-01-15T08:33:25;20.57;;;15.80;;
8964;SDS011;4517;49.020;12.066;2024-01-15T08:35:51;17.43;;;15.40;;
8964;SDS011;4517;49.020;12.066;2024-01-15T08:38:18;22.43;;;15.80;;
8964;SDS011;4517;49.020;12.066;2024-01-15T08:40:44;16.80;;;15.10;;
8964;SDS011;4517;49.020;12.066;2024-01-15T08:43:10;17.37;;;15.07;;
8964;SDS011;4517;49.020;12.066;2024-01-15T08:45:36;17.47;;;15.37;;
8964;SDS011;4517;49.020;12.066;2024-01-15T08:48:02;18.70;;;15.53;;
8964;SDS011;4517;49.020;12.066;2024-01-15T08:50:29;30.47;;;27.60;;
8964;SDS011;4517;49.020;12.066;2024-01-15T08:52:55;17.33;;;15.50;;
8964;SDS011;4517;49.020;12.066;2024-01-15T08:55:21;16.77;;;15.13;;
8964;SDS011;4517;49.020;12.066;2024-01-15T08:57:50;16.33;;;14.73;;
8964;SDS011;4517;49.020;12.066;2024-01-15T09:00:17;16.93;;;15.30;;
8964;SDS011;4517;49.020;12.066;2024-01-15T09:02:44;16.13;;;14.40;;
8964;SDS011;4517;49.020;12.066;2024-01-15T09:05:10;18.03;;;15.27;;
8964;SDS011;4517;49.020;12.066;2024-01-15T09:07:36;15.57;;;14.10;;
8964;SDS011;4517;49.020;12.066;2024-01-15T09:10:02;16.10;;;14.60;;
8964;SDS011;4517;49.020;12.066;2024-01-15T09:12:28;16.67;;;15.10;;
8964;SDS011;4517;49.020;12.066;2024-01-15T09:14:54;17.30;;;15.70;;
8964;SDS011;4517;49.020;12.066;2024-01-15T09:17:20;16.73;;;15.30;;
8964;SDS011;4517;49.020;12.066;2024-01-15T09:19:48;16.80;;;15.20;;
8964;SDS011;4517;49.020;12.066;2024-01-15T09:22:14;25.10;;;14.87;;
8964;SDS011;4517;49.020;12.066;2024-01-15T09:24:43;16.70;;;15.33;;
8964;SDS011;4517;49.020;12.066;2024-01-15T09:27:09;16.97;;;15.17;;
8964;SDS011;4517;49.020;12.066;2024-01-15T09:29:35;16.77;;;15.30;;
8964;SDS011;4517;49.020;12.066;2024-01-15T09:32:07;17.20;;;15.40;;
8964;SDS011;4517;49.020;12.066;2024-01-15T09:34:33;16.77;;;15.07;;
8964;SDS011;4517;49.020;12.066;2024-01-15T09:36:59;16.73;;;15.17;;
8964;SDS011;4517;49.020;12.066;2024-01-15T09:39:25;17.30;;;15.60;;
8964;SDS011;4517;49.020;12.066;2024-01-15T09:41:52;17.90;;;16.03;;
8964;SDS011;4517;49.020;12.066;2024-01-15T09:44:18;19.23;;;17.43;;
8964;SDS011;4517;49.020;12.066;2024-01-15T09:46:44;17.07;;;15.47;;
8964;SDS011;4517;49.020;12.066;2024-01-15T09:49:11;18.00;;;16.37;;
8964;SDS011;4517;49.020;12.066;2024-01-15T09:51:37;17.27;;;15.53;;
8964;SDS011;4517;49.020;12.066;2024-01-15T09:54:04;16.73;;;15.10;;
8964;SDS011;4517;49.020;12.066;2024-01-15T09:56:31;18.47;;;15.80;;
8964;SDS011;4517;49.020;12.066;2024-01-15T09:58:57;24.97;;;15.40;;
8964;SDS011;4517;49.020;12.066;2024-01-15T10:01:23;18.00;;;15.77;;
8964;SDS011;4517;49.020;12.066;2024-01-15T10:03:50;17.70;;;16.00;;
8964;SDS011;4517;49.020;12.066;2024-01-15T10:06:16;17.53;;;15.97;;
8964;SDS011;4517;49.020;12.066;2024-01-15T10:08:43;18.77;;;17.00;;
8964;SDS011;4517;49.020;12.066;2024-01-15T10:11:12;17.40;;;15.70;;
8964;SDS011;4517;49.020;12.066;2024-01-15T10:13:39;18.33;;;16.63;;
8964;SDS011;4517;49.020;12.066;2024-01-15T10:16:05;18.60;;;16.70;;
8964;SDS011;4517;49.020;12.066;2024-01-15T10:18:31;18.10;;;16.30;;
8964;SDS011;4517;49.020;12.066;2024-01-15T10:20:58;17.33;;;15.17;;
8964;SDS011;4517;49.020;12.066;2024-01-15T10:23:24;16.80;;;15.30;;
8964;SDS011;4517;49.020;12.066;2024-01-15T10:25:50;19.60;;;17.23;;
8964;SDS011;4517;49.020;12.066;2024-01-15T10:28:16;17.40;;;15.60;;
8964;SDS011;4517;49.020;12.066;2024-01-15T10:30:44;20.43;;;17.53;;
8964;SDS011;4517;49.020;12.066;2024-01-15T10:33:10;18.60;;;16.60;;
8964;SDS011;4517;49.020;12.066;2024-01-15T10:35:37;17.40;;;15.60;;
8964;SDS011;4517;49.020;12.066;2024-01-15T10:38:03;18.87;;;16.73;;
8964;SDS011;4517;49.020;12.066;2024-01-15T10:40:30;21.87;;;16.70;;
8964;SDS011;4517;49.020;12.066;2024-01-15T10:42:56;16.43;;;14.83;;
8964;SDS011;4517;49.020;12.066;2024-01-15T10:45:23;19.47;;;15.97;;
8964;SDS011;4517;49.020;12.066;2024-01-15T10:47:49;18.43;;;16.63;;
8964;SDS011;4517;49.020;12.066;2024-01-15T10:50:15;16.77;;;15.27;;
8964;SDS011;4517;49.020;12.066;2024-01-15T10:52:41;15.97;;;14.37;;
8964;SDS011;4517;49.020;12.066;2024-01-15T10:55:10;17.00;;;15.60;;
8964;SDS011;4517;49.020;12.066;2024-01-15T10:57:37;18.73;;;15.40;;
8964;SDS011;4517;49.020;12.066;2024-01-15T11:00:03;17.33;;;15.77;;
8964;SDS011;4517;49.020;12.066;2024-01-15T11:02:32;15.63;;;14.20;;
8964;SDS011;4517;49.020;12.066;2024-01-15T11:05:00;15.90;;;14.33;;
8964;SDS011;4517;49.020;12.066;2024-01-15T11:07:26;15.90;;;14.50;;
8964;SDS011;4517;49.020;12.066;2024-01-15T11:09:52;16.77;;;15.40;;
8964;SDS011;4517;49.020;12.066;2024-01-15T11:12:18;15.00;;;13.90;;
8964;SDS011;4517;49.020;12.066;2024-01-15T11:14:48;15.03;;;13.60;;
8964;SDS011;4517;49.020;12.066;2024-01-15T11:17:15;16.70;;;15.13;;
8964;SDS011;4517;49.020;12.066;2024-01-15T11:24:57;16.50;;;15.20;;
8964;SDS011;4517;49.020;12.066;2024-01-15T11:30:08;15.30;;;13.73;;
8964;SDS011;4517;49.020;12.066;2024-01-15T11:32:35;15.07;;;13.67;;
8964;SDS011;4517;49.020;12.066;2024-01-15T11:35:01;14.53;;;13.43;;
8964;SDS011;4517;49.020;12.066;2024-01-15T11:37:56;16.40;;;14.80;;
8964;SDS011;4517;49.020;12.066;2024-01-15T11:40:14;15.73;;;14.40;;
8964;SDS011;4517;49.020;12.066;2024-01-15T11:42:43;14.97;;;13.67;;
8964;SDS011;4517;49.020;12.066;2024-01-15T11:45:10;13.83;;;12.63;;
8964;SDS011;4517;49.020;12.066;2024-01-15T11:50:08;15.47;;;13.90;;
8964;SDS011;4517;49.020;12.066;2024-01-15T11:52:35;14.30;;;13.00;;
8964;SDS011;4517;49.020;12.066;2024-01-15T11:55:12;15.57;;;14.23;;
8964;SDS011;4517;49.020;12.066;2024-01-15T11:57:41;14.17;;;13.17;;
8964;SDS011;4517;49.020;12.066;2024-01-15T12:00:11;17.07;;;15.70;;
8964;SDS011;4517;49.020;12.066;2024-01-15T12:02:38;15.37;;;13.93;;
8964;SDS011;4517;49.020;12.066;2024-01-15T12:05:05;15.00;;;13.87;;
8964;SDS011;4517;49.020;12.066;2024-01-15T12:07:32;17.50;;;15.87;;
8964;SDS011;4517;49.020;12.066;2024-01-15T12:09:58;17.80;;;16.50;;
8964;SDS011;4517;49.020;12.066;2024-01-15T12:12:27;16.90;;;15.23;;
8964;SDS011;4517;49.020;12.066;2024-01-15T12:14:54;15.73;;;14.37;;
8964;SDS011;4517;49.020;12.066;2024-01-15T12:17:20;15.53;;;14.20;;
8964;SDS011;4517;49.020;12.066;2024-01-15T12:19:46;16.43;;;14.30;;
8964;SDS011;4517;49.020;12.066;2024-01-15T12:22:12;15.90;;;14.40;;
8964;SDS011;4517;49.020;12.066;2024-01-15T12:24:40;15.67;;;14.23;;
8964;SDS011;4517;49.020;12.066;2024-01-15T12:27:06;17.27;;;15.97;;
8964;SDS011;4517;49.020;12.066;2024-01-15T12:29:32;15.67;;;14.27;;
8964;SDS011;4517;49.020;12.066;2024-01-15T12:31:58;15.87;;;14.13;;
8964;SDS011;4517;49.020;12.066;2024-01-15T12:34:28;14.93;;;13.13;;
8964;SDS011;4517;49.020;12.066;2024-01-15T12:36:56;15.17;;;13.90;;
8964;SDS011;4517;49.020;12.066;2024-01-15T12:39:22;16.43;;;15.03;;
8964;SDS011;4517;49.020;12.066;2024-01-15T12:41:48;14.60;;;13.50;;
8964;SDS011;4517;49.020;12.066;2024-01-15T12:44:14;14.77;;;13.63;;
8964;SDS011;4517;49.020;12.066;2024-01-15T12:46:40;13.70;;;12.60;;
8964;SDS011;4517;49.020;12.066;2024-01-15T12:49:07;15.63;;;14.30;;
8964;SDS011;4517;49.020;12.066;2024-01-15T12:51:36;15.10;;;13.90;;
8964;SDS011;4517;49.020;12.066;2024-01-15T12:54:03;16.17;;;14.70;;
8964;SDS011;4517;49.020;12.066;2024-01-15T12:56:29;21.37;;;15.80;;
8964;SDS011;4517;49.020;12.066;2024-01-15T12:58:55;15.77;;;14.73;;
8964;SDS011;4517;49.020;12.066;2024-01-15T13:01:21;14.10;;;13.10;;
8964;SDS011;4517;49.020;12.066;2024-01-15T13:03:47;15.30;;;14.10;;
8964;SDS011;4517;49.020;12.066;2024-01-15T13:06:13;15.07;;;13.83;;
8964;SDS011;4517;49.020;12.066;2024-01-15T13:08:39;15.27;;;14.17;;
8964;SDS011;4517;49.020;12.066;2024-01-15T13:11:05;15.40;;;14.40;;
8964;SDS011;4517;49.020;12.066;2024-01-15T13:13:31;15.10;;;14.00;;
8964;SDS011;4517;49.020;12.066;2024-01-15T13:15:59;16.70;;;15.27;;
8964;SDS011;4517;49.020;12.066;2024-01-15T13:18:25;17.40;;;16.10;;
8964;SDS011;4517;49.020;12.066;2024-01-15T13:20:51;15.97;;;14.87;;
8964;SDS011;4517;49.020;12.066;2024-01-15T13:23:17;17.20;;;15.50;;
8964;SDS011;4517;49.020;12.066;2024-01-15T13:25:43;15.23;;;13.87;;
8964;SDS011;4517;49.020;12.066;2024-01-15T13:28:09;14.80;;;13.80;;
8964;SDS011;4517;49.020;12.066;2024-01-15T13:30:35;16.30;;;14.97;;
8964;SDS011;4517;49.020;12.066;2024-01-15T13:33:02;17.07;;;15.60;;
8964;SDS011;4517;49.020;12.066;2024-01-15T13:35:29;17.20;;;15.80;;
8964;SDS011;4517;49.020;12.066;2024-01-15T13:37:55;17.83;;;16.23;;
8964;SDS011;4517;49.020;12.066;2024-01-15T13:40:21;18.07;;;16.60;;
8964;SDS011;4517;49.020;12.066;2024-01-15T13:42:47;17.13;;;15.70;;
8964;SDS011;4517;49.020;12.066;2024-01-15T13:45:13;16.43;;;15.13;;
8964;SDS011;4517;49.020;12.066;2024-01-15T13:47:40;18.97;;;17.67;;
8964;SDS011;4517;49.020;12.066;2024-01-15T13:50:08;18.60;;;16.97;;
8964;SDS011;4517;49.020;12.066;2024-01-15T13:52:34;17.40;;;16.10;;
8964;SDS011;4517;49.020;12.066;2024-01-15T13:55:00;18.20;;;16.80;;
8964;SDS011;4517;49.020;12.066;2024-01-15T13:57:26;16.83;;;15.53;;
8964;SDS011;4517;49.020;12.066;2024-01-15T13:59:52;16.90;;;15.50;;
8964;SDS011;4517;49.020;12.066;2024-01-15T14:02:18;17.87;;;16.43;;
8964;SDS011;4517;49.020;12.066;2024-01-15T14:04:45;18.60;;;17.17;;
8964;SDS011;4517;49.020;12.066;2024-01-15T14:07:11;18.37;;;16.47;;
8964;SDS011;4517;49.020;12.066;2024-01-15T14:09:37;19.57;;;18.00;;
8964;SDS011;4517;49.020;12.066;2024-01-15T14:12:03;19.60;;;18.10;;
8964;SDS011;4517;49.020;12.066;2024-01-15T14:14:29;20.57;;;18.77;;
8964;SDS011;4517;49.020;12.066;2024-01-15T14:16:55;19.70;;;17.80;;
8964;SDS011;4517;49.020;12.066;2024-01-15T14:19:21;20.23;;;18.70;;
8964;SDS011;4517;49.020;12.066;2024-01-15T14:21:47;24.90;;;22.73;;
8964;SDS011;4517;49.020;12.066;2024-01-15T14:24:13;19.80;;;18.23;;
8964;SDS011;4517;49.020;12.066;2024-01-15T14:26:40;20.10;;;18.10;;
8964;SDS011;4517;49.020;12.066;2024-01-15T14:29:06;20.37;;;18.80;;
8964;SDS011;4517;49.020;12.066;2024-01-15T14:31:32;19.87;;;18.37;;
8964;SDS011;4517;49.020;12.066;2024-01-15T14:33:59;19.33;;;17.90;;
8964;SDS011;4517;49.020;12.066;2024-01-15T14:36:25;20.63;;;18.97;;
8964;SDS011;4517;49.020;12.066;2024-01-15T14:38:51;20.37;;;18.60;;